sensor_id;sensor_type;location;lat;lon;timestamp;P1;durP1;ratioP1;P2;durP2;ratioP2
323;SDS011;149;51.094;17.002;2023-05-23T00:02:24;7.30;;;5.60;;
323;SDS011;149;51.094;17.002;2023-05-23T00:04:52;5.80;;;5.20;;
323;SDS011;149;51.094;17.002;2023-05-23T00:07:25;7.33;;;6.50;;
323;SDS011;149;51.094;17.002;2023-05-23T00:09:58;6.80;;;6.07;;
323;SDS011;149;51.094;17.002;2023-05-23T00:12:26;4.90;;;4.15;;
323;SDS011;149;51.094;17.002;2023-05-23T00:14:57;7.18;;;5.82;;
323;SDS011;149;51.094;17.002;2023-05-23T00:17:25;6.07;;;5.47;;
323;SDS011;149;51.094;17.002;2023-05-23T00:19:54;6.90;;;5.60;;
323;SDS011;149;51.094;17.002;2023-05-23T00:22:21;6.43;;;5.83;;
323;SDS011;149;51.094;17.002;2023-05-23T00:24:49;9.80;;;6.00;;
323;SDS011;149;51.094;17.002;2023-05-23T00:27:16;7.40;;;6.13;;
323;SDS011;149;51.094;17.002;2023-05-23T00:29:46;6.40;;;5.77;;
323;SDS011;149;51.094;17.002;2023-05-23T00:32:14;7.38;;;5.97;;
323;SDS011;149;51.094;17.002;2023-05-23T00:34:43;7.28;;;6.55;;
323;SDS011;149;51.094;17.002;2023-05-23T00:37:11;8.85;;;7.82;;
323;SDS011;149;51.094;17.002;2023-05-23T00:39:42;8.50;;;6.00;;
323;SDS011;149;51.094;17.002;2023-05-23T00:42:09;10.50;;;6.43;;
323;SDS011;149;51.094;17.002;2023-05-23T00:44:36;7.03;;;6.43;;
323;SDS011;149;51.094;17.002;2023-05-23T00:47:04;7.00;;;6.30;;
323;SDS011;149;51.094;17.002;2023-05-23T00:49:32;8.23;;;6.70;;
323;SDS011;149;51.094;17.002;2023-05-23T00:52:01;8.77;;;7.10;;
323;SDS011;149;51.094;17.002;2023-05-23T00:54:29;7.80;;;7.10;;
323;SDS011;149;51.094;17.002;2023-05-23T00:57:09;9.73;;;6.70;;
323;SDS011;149;51.094;17.002;2023-05-23T00:59:40;7.33;;;6.20;;
323;SDS011;149;51.094;17.002;2023-05-23T01:02:11;6.85;;;5.90;;
323;SDS011;149;51.094;17.002;2023-05-23T01:04:39;7.97;;;7.15;;
323;SDS011;149;51.094;17.002;2023-05-23T01:07:10;6.65;;;6.05;;
323;SDS011;149;51.094;17.002;2023-05-23T01:09:39;6.80;;;6.20;;
323;SDS011;149;51.094;17.002;2023-05-23T01:14:57;9.45;;;6.80;;
323;SDS011;149;51.094;17.002;2023-05-23T01:17:42;10.45;;;7.70;;
323;SDS011;149;51.094;17.002;2023-05-23T01:20:21;9.10;;;6.60;;
323;SDS011;149;51.094;17.002;2023-05-23T01:28:06;13.60;;;8.30;;
323;SDS011;149;51.094;17.002;2023-05-23T01:30:39;6.50;;;5.72;;
323;SDS011;149;51.094;17.002;2023-05-23T01:33:08;8.30;;;6.60;;
323;SDS011;149;51.094;17.002;2023-05-23T01:35:38;13.57;;;6.90;;
323;SDS011;149;51.094;17.002;2023-05-23T01:38:08;8.18;;;6.43;;
323;SDS011;149;51.094;17.002;2023-05-23T01:40:36;7.07;;;6.32;;
323;SDS011;149;51.094;17.002;2023-05-23T01:43:08;7.50;;;6.20;;
323;SDS011;149;51.094;17.002;2023-05-23T01:45:37;7.18;;;6.45;;
323;SDS011;149;51.094;17.002;2023-05-23T01:48:07;13.10;;;7.50;;
323;SDS011;149;51.094;17.002;2023-05-23T01:50:37;13.02;;;6.88;;
323;SDS011;149;51.094;17.002;2023-05-23T01:53:07;10.80;;;6.30;;
323;SDS011;149;51.094;17.002;2023-05-23T01:55:37;9.13;;;8.05;;
323;SDS011;149;51.094;17.002;2023-05-23T01:58:06;7.20;;;6.50;;
323;SDS011;149;51.094;17.002;2023-05-23T02:00:34;7.05;;;5.57;;
323;SDS011;149;51.094;17.002;2023-05-23T02:03:03;7.38;;;6.40;;
323;SDS011;149;51.094;17.002;2023-05-23T02:05:32;6.80;;;5.55;;
323;SDS011;149;51.094;17.002;2023-05-23T02:08:01;7.40;;;5.82;;
323;SDS011;149;51.094;17.002;2023-05-23T02:10:29;7.38;;;6.55;;
323;SDS011;149;51.094;17.002;2023-05-23T02:12:56;13.88;;;8.40;;
323;SDS011;149;51.094;17.002;2023-05-23T02:15:25;6.93;;;6.05;;
323;SDS011;149;51.094;17.002;2023-05-23T02:17:52;10.68;;;7.00;;
323;SDS011;149;51.094;17.002;2023-05-23T02:20:20;8.45;;;6.00;;
323;SDS011;149;51.094;17.002;2023-05-23T02:22:48;9.63;;;6.40;;
323;SDS011;149;51.094;17.002;2023-05-23T02:25:23;9.48;;;6.47;;
323;SDS011;149;51.094;17.002;2023-05-23T02:27:52;7.10;;;6.10;;
323;SDS011;149;51.094;17.002;2023-05-23T02:30:22;8.07;;;7.28;;
323;SDS011;149;51.094;17.002;2023-05-23T02:32:52;10.90;;;7.50;;
323;SDS011;149;51.094;17.002;2023-05-23T02:35:19;7.72;;;6.43;;
323;SDS011;149;51.094;17.002;2023-05-23T02:37:48;8.02;;;6.90;;
323;SDS011;149;51.094;17.002;2023-05-23T02:40:15;7.60;;;6.07;;
323;SDS011;149;51.094;17.002;2023-05-23T02:42:44;6.80;;;6.10;;
323;SDS011;149;51.094;17.002;2023-05-23T02:45:15;7.82;;;7.00;;
323;SDS011;149;51.094;17.002;2023-05-23T02:47:43;7.55;;;6.85;;
323;SDS011;149;51.094;17.002;2023-05-23T02:50:17;8.98;;;6.88;;
323;SDS011;149;51.094;17.002;2023-05-23T02:52:44;9.13;;;6.40;;
323;SDS011;149;51.094;17.002;2023-05-23T02:55:12;10.75;;;7.13;;
323;SDS011;149;51.094;17.002;2023-05-23T02:57:42;6.95;;;6.25;;
323;SDS011;149;51.094;17.002;2023-05-23T03:00:09;9.27;;;6.68;;
323;SDS011;149;51.094;17.002;2023-05-23T03:02:38;7.60;;;6.80;;
323;SDS011;149;51.094;17.002;2023-05-23T03:05:07;16.75;;;8.40;;
323;SDS011;149;51.094;17.002;2023-05-23T03:07:36;8.20;;;7.30;;
323;SDS011;149;51.094;17.002;2023-05-23T03:10:04;7.70;;;6.68;;
323;SDS011;149;51.094;17.002;2023-05-23T03:12:34;9.10;;;7.47;;
323;SDS011;149;51.094;17.002;2023-05-23T03:15:03;7.75;;;6.75;;
323;SDS011;149;51.094;17.002;2023-05-23T03:17:34;9.48;;;8.25;;
323;SDS011;149;51.094;17.002;2023-05-23T03:20:01;8.25;;;7.25;;
323;SDS011;149;51.094;17.002;2023-05-23T03:22:32;7.80;;;7.10;;
323;SDS011;149;51.094;17.002;2023-05-23T03:25:02;11.57;;;7.28;;
323;SDS011;149;51.094;17.002;2023-05-23T03:27:31;8.02;;;6.85;;
323;SDS011;149;51.094;17.002;2023-05-23T03:29:59;8.07;;;7.35;;
323;SDS011;149;51.094;17.002;2023-05-23T03:32:34;9.30;;;7.93;;
323;SDS011;149;51.094;17.002;2023-05-23T03:35:02;7.38;;;6.68;;
323;SDS011;149;51.094;17.002;2023-05-23T03:37:29;8.60;;;7.65;;
323;SDS011;149;51.094;17.002;2023-05-23T03:40:01;6.97;;;6.22;;
323;SDS011;149;51.094;17.002;2023-05-23T03:42:35;7.65;;;6.80;;
323;SDS011;149;51.094;17.002;2023-05-23T03:45:03;8.90;;;6.97;;
323;SDS011;149;51.094;17.002;2023-05-23T03:47:30;7.40;;;6.70;;
323;SDS011;149;51.094;17.002;2023-05-23T03:50:01;8.30;;;7.63;;
323;SDS011;149;51.094;17.002;2023-05-23T03:52:31;7.20;;;6.50;;
323;SDS011;149;51.094;17.002;2023-05-23T03:55:01;8.00;;;7.18;;
323;SDS011;149;51.094;17.002;2023-05-23T03:57:31;11.23;;;8.25;;
323;SDS011;149;51.094;17.002;2023-05-23T04:00:04;7.50;;;6.68;;
323;SDS011;149;51.094;17.002;2023-05-23T04:02:31;8.25;;;7.20;;
323;SDS011;149;51.094;17.002;2023-05-23T04:04:59;10.07;;;7.03;;
323;SDS011;149;51.094;17.002;2023-05-23T04:07:27;8.07;;;7.28;;
323;SDS011;149;51.094;17.002;2023-05-23T04:09:57;8.77;;;7.88;;
323;SDS011;149;51.094;17.002;2023-05-23T04:12:26;11.52;;;8.30;;
323;SDS011;149;51.094;17.002;2023-05-23T04:14:56;19.73;;;7.93;;
323;SDS011;149;51.094;17.002;2023-05-23T04:17:24;9.05;;;7.65;;
323;SDS011;149;51.094;17.002;2023-05-23T04:20:00;8.13;;;7.30;;
323;SDS011;149;51.094;17.002;2023-05-23T04:22:27;7.85;;;6.65;;
323;SDS011;149;51.094;17.002;2023-05-23T04:24:58;8.80;;;7.30;;
323;SDS011;149;51.094;17.002;2023-05-23T04:27:31;9.20;;;6.43;;
323;SDS011;149;51.094;17.002;2023-05-23T04:30:06;7.93;;;6.97;;
323;SDS011;149;51.094;17.002;2023-05-23T04:32:36;7.90;;;7.20;;
323;SDS011;149;51.094;17.002;2023-05-23T04:35:05;9.53;;;6.90;;
323;SDS011;149;51.094;17.002;2023-05-23T04:37:39;7.73;;;6.60;;
323;SDS011;149;51.094;17.002;2023-05-23T04:40:09;16.77;;;7.60;;
323;SDS011;149;51.094;17.002;2023-05-23T04:42:40;8.47;;;7.67;;
323;SDS011;149;51.094;17.002;2023-05-23T04:45:10;9.20;;;7.90;;
323;SDS011;149;51.094;17.002;2023-05-23T04:47:38;10.70;;;7.60;;
323;SDS011;149;51.094;17.002;2023-05-23T04:50:06;8.20;;;7.40;;
323;SDS011;149;51.094;17.002;2023-05-23T04:52:36;10.40;;;7.47;;
323;SDS011;149;51.094;17.002;2023-05-23T04:55:05;13.00;;;9.00;;
323;SDS011;149;51.094;17.002;2023-05-23T04:57:39;8.83;;;7.87;;
323;SDS011;149;51.094;17.002;2023-05-23T05:00:09;14.87;;;7.63;;
323;SDS011;149;51.094;17.002;2023-05-23T05:02:40;7.93;;;7.13;;
323;SDS011;149;51.094;17.002;2023-05-23T05:05:07;10.20;;;7.50;;
323;SDS011;149;51.094;17.002;2023-05-23T05:07:37;10.80;;;6.50;;
323;SDS011;149;51.094;17.002;2023-05-23T05:10:08;7.33;;;6.40;;
323;SDS011;149;51.094;17.002;2023-05-23T05:12:44;15.33;;;9.40;;
323;SDS011;149;51.094;17.002;2023-05-23T05:15:17;8.57;;;7.40;;
323;SDS011;149;51.094;17.002;2023-05-23T05:17:46;10.07;;;8.23;;
323;SDS011;149;51.094;17.002;2023-05-23T05:20:15;11.73;;;7.23;;
323;SDS011;149;51.094;17.002;2023-05-23T05:22:53;15.27;;;6.60;;
323;SDS011;149;51.094;17.002;2023-05-23T05:25:25;8.80;;;7.90;;
323;SDS011;149;51.094;17.002;2023-05-23T05:27:54;7.90;;;7.10;;
323;SDS011;149;51.094;17.002;2023-05-23T05:30:28;8.47;;;7.40;;
323;SDS011;149;51.094;17.002;2023-05-23T05:33:05;12.40;;;8.80;;
323;SDS011;149;51.094;17.002;2023-05-23T05:35:34;8.50;;;7.37;;
323;SDS011;149;51.094;17.002;2023-05-23T05:38:04;8.97;;;8.17;;
323;SDS011;149;51.094;17.002;2023-05-23T05:40:34;9.00;;;7.13;;
323;SDS011;149;51.094;17.002;2023-05-23T05:43:04;10.73;;;6.97;;
323;SDS011;149;51.094;17.002;2023-05-23T05:45:39;9.60;;;8.70;;
323;SDS011;149;51.094;17.002;2023-05-23T05:48:11;11.80;;;8.63;;
323;SDS011;149;51.094;17.002;2023-05-23T05:50:38;17.17;;;6.80;;
323;SDS011;149;51.094;17.002;2023-05-23T05:53:11;7.93;;;7.13;;
323;SDS011;149;51.094;17.002;2023-05-23T05:55:45;11.00;;;7.27;;
323;SDS011;149;51.094;17.002;2023-05-23T05:58:16;10.73;;;7.50;;
323;SDS011;149;51.094;17.002;2023-05-23T06:00:46;9.67;;;8.23;;
323;SDS011;149;51.094;17.002;2023-05-23T06:03:15;9.80;;;8.27;;
323;SDS011;149;51.094;17.002;2023-05-23T06:06:06;9.80;;;8.70;;
323;SDS011;149;51.094;17.002;2023-05-23T06:08:43;11.50;;;8.43;;
323;SDS011;149;51.094;17.002;2023-05-23T06:11:14;12.43;;;8.80;;
323;SDS011;149;51.094;17.002;2023-05-23T06:13:42;10.77;;;9.67;;
323;SDS011;149;51.094;17.002;2023-05-23T06:16:13;14.60;;;9.13;;
323;SDS011;149;51.094;17.002;2023-05-23T06:19:02;9.90;;;8.13;;
323;SDS011;149;51.094;17.002;2023-05-23T06:21:30;10.33;;;8.70;;
323;SDS011;149;51.094;17.002;2023-05-23T06:24:06;11.40;;;8.10;;
323;SDS011;149;51.094;17.002;2023-05-23T06:26:33;9.03;;;7.80;;
323;SDS011;149;51.094;17.002;2023-05-23T06:29:02;8.77;;;7.97;;
323;SDS011;149;51.094;17.002;2023-05-23T06:31:30;17.40;;;10.80;;
323;SDS011;149;51.094;17.002;2023-05-23T06:34:00;14.83;;;9.97;;
323;SDS011;149;51.094;17.002;2023-05-23T06:36:49;19.10;;;9.60;;
323;SDS011;149;51.094;17.002;2023-05-23T06:39:28;10.10;;;9.10;;
323;SDS011;149;51.094;17.002;2023-05-23T06:42:01;11.47;;;8.73;;
323;SDS011;149;51.094;17.002;2023-05-23T06:44:39;11.17;;;9.47;;
323;SDS011;149;51.094;17.002;2023-05-23T06:47:24;13.17;;;9.37;;
323;SDS011;149;51.094;17.002;2023-05-23T06:50:01;13.40;;;9.37;;
323;SDS011;149;51.094;17.002;2023-05-23T06:52:45;20.10;;;10.60;;
323;SDS011;149;51.094;17.002;2023-05-23T06:55:26;13.00;;;10.37;;
323;SDS011;149;51.094;17.002;2023-05-23T06:58:20;11.40;;;9.60;;
323;SDS011;149;51.094;17.002;2023-05-23T07:01:11;15.67;;;9.10;;
323;SDS011;149;51.094;17.002;2023-05-23T07:03:49;9.40;;;8.47;;
323;SDS011;149;51.094;17.002;2023-05-23T07:06:39;11.47;;;9.70;;
323;SDS011;149;51.094;17.002;2023-05-23T07:09:16;11.23;;;9.20;;
323;SDS011;149;51.094;17.002;2023-05-23T07:12:00;9.60;;;8.33;;
323;SDS011;149;51.094;17.002;2023-05-23T07:14:35;10.27;;;9.27;;
323;SDS011;149;51.094;17.002;2023-05-23T07:17:07;10.43;;;8.37;;
323;SDS011;149;51.094;17.002;2023-05-23T07:19:41;16.63;;;9.90;;
323;SDS011;149;51.094;17.002;2023-05-23T07:22:23;10.03;;;9.03;;
323;SDS011;149;51.094;17.002;2023-05-23T07:24:56;11.73;;;8.63;;
323;SDS011;149;51.094;17.002;2023-05-23T07:27:28;14.97;;;9.20;;
323;SDS011;149;51.094;17.002;2023-05-23T07:30:05;9.17;;;8.40;;
323;SDS011;149;51.094;17.002;2023-05-23T07:32:39;16.00;;;8.67;;
323;SDS011;149;51.094;17.002;2023-05-23T07:35:11;9.37;;;8.47;;
323;SDS011;149;51.094;17.002;2023-05-23T07:38:04;10.20;;;8.23;;
323;SDS011;149;51.094;17.002;2023-05-23T07:40:32;10.40;;;9.40;;
323;SDS011;149;51.094;17.002;2023-05-23T07:43:14;8.73;;;7.60;;
323;SDS011;149;51.094;17.002;2023-05-23T07:45:42;11.13;;;8.13;;
323;SDS011;149;51.094;17.002;2023-05-23T07:48:10;20.53;;;8.53;;
323;SDS011;149;51.094;17.002;2023-05-23T07:50:39;14.97;;;9.27;;
323;SDS011;149;51.094;17.002;2023-05-23T07:53:14;9.53;;;7.63;;
323;SDS011;149;51.094;17.002;2023-05-23T07:55:54;9.00;;;7.67;;
323;SDS011;149;51.094;17.002;2023-05-23T07:58:22;10.87;;;7.73;;
323;SDS011;149;51.094;17.002;2023-05-23T08:01:17;9.67;;;8.40;;
323;SDS011;149;51.094;17.002;2023-05-23T08:03:50;12.23;;;8.73;;
323;SDS011;149;51.094;17.002;2023-05-23T08:06:36;8.60;;;7.80;;
323;SDS011;149;51.094;17.002;2023-05-23T08:09:24;8.27;;;7.43;;
323;SDS011;149;51.094;17.002;2023-05-23T08:11:56;9.00;;;7.50;;
323;SDS011;149;51.094;17.002;2023-05-23T08:14:35;10.90;;;7.80;;
323;SDS011;149;51.094;17.002;2023-05-23T08:17:17;8.17;;;7.37;;
323;SDS011;149;51.094;17.002;2023-05-23T08:19:47;9.73;;;7.57;;
323;SDS011;149;51.094;17.002;2023-05-23T08:22:14;8.40;;;7.40;;
323;SDS011;149;51.094;17.002;2023-05-23T08:24:43;7.93;;;6.93;;
323;SDS011;149;51.094;17.002;2023-05-23T08:27:12;13.10;;;7.73;;
323;SDS011;149;51.094;17.002;2023-05-23T08:29:39;12.20;;;9.00;;
323;SDS011;149;51.094;17.002;2023-05-23T08:32:11;11.47;;;8.40;;
323;SDS011;149;51.094;17.002;2023-05-23T08:34:42;11.93;;;7.67;;
323;SDS011;149;51.094;17.002;2023-05-23T08:37:12;8.07;;;7.27;;
323;SDS011;149;51.094;17.002;2023-05-23T08:39:40;9.00;;;8.13;;
323;SDS011;149;51.094;17.002;2023-05-23T08:42:08;11.90;;;8.60;;
323;SDS011;149;51.094;17.002;2023-05-23T08:44:35;9.90;;;8.70;;
323;SDS011;149;51.094;17.002;2023-05-23T08:47:08;9.47;;;8.60;;
323;SDS011;149;51.094;17.002;2023-05-23T08:49:51;10.20;;;7.80;;
323;SDS011;149;51.094;17.002;2023-05-23T08:52:20;12.03;;;8.90;;
323;SDS011;149;51.094;17.002;2023-05-23T08:54:54;9.40;;;7.93;;
323;SDS011;149;51.094;17.002;2023-05-23T08:59:59;11.57;;;8.33;;
323;SDS011;149;51.094;17.002;2023-05-23T09:02:36;13.90;;;8.73;;
323;SDS011;149;51.094;17.002;2023-05-23T09:05:06;13.40;;;8.87;;
323;SDS011;149;51.094;17.002;2023-05-23T09:07:36;10.87;;;9.67;;
323;SDS011;149;51.094;17.002;2023-05-23T09:10:08;10.50;;;8.90;;
323;SDS011;149;51.094;17.002;2023-05-23T09:12:45;10.60;;;9.47;;
323;SDS011;149;51.094;17.002;2023-05-23T09:15:13;14.13;;;9.30;;
323;SDS011;149;51.094;17.002;2023-05-23T09:17:50;11.73;;;10.50;;
323;SDS011;149;51.094;17.002;2023-05-23T09:20:20;13.83;;;11.77;;
323;SDS011;149;51.094;17.002;2023-05-23T09:22:59;11.63;;;10.37;;
323;SDS011;149;51.094;17.002;2023-05-23T09:25:46;16.17;;;10.70;;
323;SDS011;149;51.094;17.002;2023-05-23T09:28:18;10.93;;;9.83;;
323;SDS011;149;51.094;17.002;2023-05-23T09:30:56;14.40;;;10.57;;
323;SDS011;149;51.094;17.002;2023-05-23T09:33:44;14.80;;;10.60;;
323;SDS011;149;51.094;17.002;2023-05-23T09:36:19;16.67;;;10.97;;
323;SDS011;149;51.094;17.002;2023-05-23T09:38:51;12.17;;;9.70;;
323;SDS011;149;51.094;17.002;2023-05-23T09:41:19;15.43;;;12.10;;
323;SDS011;149;51.094;17.002;2023-05-23T09:43:52;13.80;;;12.33;;
323;SDS011;149;51.094;17.002;2023-05-23T09:46:27;12.97;;;11.30;;
323;SDS011;149;51.094;17.002;2023-05-23T09:48:57;14.47;;;12.03;;
323;SDS011;149;51.094;17.002;2023-05-23T09:51:57;20.57;;;14.13;;
323;SDS011;149;51.094;17.002;2023-05-23T09:54:30;13.80;;;12.30;;
323;SDS011;149;51.094;17.002;2023-05-23T09:57:00;16.53;;;14.80;;
323;SDS011;149;51.094;17.002;2023-05-23T09:59:31;16.77;;;13.10;;
323;SDS011;149;51.094;17.002;2023-05-23T10:02:52;15.03;;;13.37;;
323;SDS011;149;51.094;17.002;2023-05-23T10:05:50;19.50;;;13.33;;
323;SDS011;149;51.094;17.002;2023-05-23T10:08:33;18.60;;;13.17;;
323;SDS011;149;51.094;17.002;2023-05-23T10:11:29;21.70;;;15.10;;
323;SDS011;149;51.094;17.002;2023-05-23T10:14:05;18.17;;;15.97;;
323;SDS011;149;51.094;17.002;2023-05-23T10:16:41;17.70;;;14.23;;
323;SDS011;149;51.094;17.002;2023-05-23T10:19:30;16.27;;;13.70;;
323;SDS011;149;51.094;17.002;2023-05-23T10:22:25;13.93;;;12.60;;
323;SDS011;149;51.094;17.002;2023-05-23T10:24:59;15.00;;;13.47;;
323;SDS011;149;51.094;17.002;2023-05-23T10:27:28;15.77;;;13.47;;
323;SDS011;149;51.094;17.002;2023-05-23T10:30:32;13.03;;;11.83;;
323;SDS011;149;51.094;17.002;2023-05-23T10:33:00;14.00;;;12.70;;
323;SDS011;149;51.094;17.002;2023-05-23T10:36:18;14.80;;;13.40;;
323;SDS011;149;51.094;17.002;2023-05-23T10:39:04;14.47;;;13.07;;
323;SDS011;149;51.094;17.002;2023-05-23T10:41:45;20.57;;;13.90;;
323;SDS011;149;51.094;17.002;2023-05-23T10:44:37;14.40;;;13.10;;
323;SDS011;149;51.094;17.002;2023-05-23T10:47:28;21.23;;;12.80;;
323;SDS011;149;51.094;17.002;2023-05-23T10:49:56;15.73;;;13.07;;
323;SDS011;149;51.094;17.002;2023-05-23T10:52:28;14.57;;;12.50;;
323;SDS011;149;51.094;17.002;2023-05-23T10:55:16;17.93;;;13.70;;
323;SDS011;149;51.094;17.002;2023-05-23T10:57:46;15.13;;;13.47;;
323;SDS011;149;51.094;17.002;2023-05-23T11:01:00;14.00;;;11.37;;
323;SDS011;149;51.094;17.002;2023-05-23T11:09:11;13.80;;;10.43;;
323;SDS011;149;51.094;17.002;2023-05-23T11:16:58;13.70;;;11.13;;
323;SDS011;149;51.094;17.002;2023-05-23T11:22:31;11.37;;;9.23;;
323;SDS011;149;51.094;17.002;2023-05-23T11:25:08;10.40;;;9.20;;
323;SDS011;149;51.094;17.002;2023-05-23T11:27:39;13.20;;;9.60;;
323;SDS011;149;51.094;17.002;2023-05-23T11:30:15;11.83;;;9.27;;
323;SDS011;149;51.094;17.002;2023-05-23T11:32:49;9.37;;;8.40;;
323;SDS011;149;51.094;17.002;2023-05-23T11:35:20;12.73;;;8.37;;
323;SDS011;149;51.094;17.002;2023-05-23T11:37:51;10.23;;;8.43;;
323;SDS011;149;51.094;17.002;2023-05-23T11:43:15;10.00;;;9.10;;
323;SDS011;149;51.094;17.002;2023-05-23T11:45:45;8.43;;;7.83;;
323;SDS011;149;51.094;17.002;2023-05-23T11:48:19;9.73;;;8.60;;
323;SDS011;149;51.094;17.002;2023-05-23T11:50:47;9.00;;;8.10;;
323;SDS011;149;51.094;17.002;2023-05-23T11:53:16;13.83;;;8.47;;
323;SDS011;149;51.094;17.002;2023-05-23T11:55:51;9.83;;;8.60;;
323;SDS011;149;51.094;17.002;2023-05-23T11:58:28;8.47;;;7.57;;
323;SDS011;149;51.094;17.002;2023-05-23T12:01:06;9.03;;;8.10;;
323;SDS011;149;51.094;17.002;2023-05-23T12:03:45;9.63;;;7.37;;
323;SDS011;149;51.094;17.002;2023-05-23T12:06:19;8.77;;;7.83;;
323;SDS011;149;51.094;17.002;2023-05-23T12:08:52;9.10;;;6.87;;
323;SDS011;149;51.094;17.002;2023-05-23T12:11:22;10.13;;;8.53;;
323;SDS011;149;51.094;17.002;2023-05-23T12:13:52;10.27;;;8.03;;
323;SDS011;149;51.094;17.002;2023-05-23T12:16:20;7.07;;;6.40;;
323;SDS011;149;51.094;17.002;2023-05-23T12:18:49;8.07;;;7.30;;
323;SDS011;149;51.094;17.002;2023-05-23T12:21:20;8.30;;;7.60;;
323;SDS011;149;51.094;17.002;2023-05-23T12:23:52;7.30;;;6.67;;
323;SDS011;149;51.094;17.002;2023-05-23T12:26:20;10.00;;;8.30;;
323;SDS011;149;51.094;17.002;2023-05-23T12:28:47;11.20;;;8.50;;
323;SDS011;149;51.094;17.002;2023-05-23T12:31:20;13.43;;;7.63;;
323;SDS011;149;51.094;17.002;2023-05-23T12:33:51;10.67;;;8.37;;
323;SDS011;149;51.094;17.002;2023-05-23T12:36:23;7.87;;;7.20;;
323;SDS011;149;51.094;17.002;2023-05-23T12:39:03;8.70;;;6.97;;
323;SDS011;149;51.094;17.002;2023-05-23T12:41:33;7.90;;;6.97;;
323;SDS011;149;51.094;17.002;2023-05-23T12:44:02;11.07;;;8.30;;
323;SDS011;149;51.094;17.002;2023-05-23T12:46:34;13.10;;;8.63;;
323;SDS011;149;51.094;17.002;2023-05-23T12:49:07;7.20;;;6.60;;
323;SDS011;149;51.094;17.002;2023-05-23T12:51:37;7.37;;;6.73;;
323;SDS011;149;51.094;17.002;2023-05-23T12:54:04;7.20;;;6.50;;
323;SDS011;149;51.094;17.002;2023-05-23T12:56:34;7.60;;;6.80;;
323;SDS011;149;51.094;17.002;2023-05-23T12:59:05;7.67;;;6.87;;
323;SDS011;149;51.094;17.002;2023-05-23T13:01:35;8.93;;;7.90;;
323;SDS011;149;51.094;17.002;2023-05-23T13:04:04;8.43;;;7.60;;
323;SDS011;149;51.094;17.002;2023-05-23T13:06:37;10.20;;;8.90;;
323;SDS011;149;51.094;17.002;2023-05-23T13:09:09;10.63;;;7.77;;
323;SDS011;149;51.094;17.002;2023-05-23T13:14:13;9.23;;;8.40;;
323;SDS011;149;51.094;17.002;2023-05-23T13:16:44;7.87;;;7.23;;
323;SDS011;149;51.094;17.002;2023-05-23T13:19:18;8.90;;;7.47;;
323;SDS011;149;51.094;17.002;2023-05-23T13:21:52;10.40;;;9.40;;
323;SDS011;149;51.094;17.002;2023-05-23T13:24:20;8.80;;;7.87;;
323;SDS011;149;51.094;17.002;2023-05-23T13:26:52;9.43;;;8.53;;
323;SDS011;149;51.094;17.002;2023-05-23T13:29:19;10.10;;;8.77;;
323;SDS011;149;51.094;17.002;2023-05-23T13:31:47;10.00;;;9.10;;
323;SDS011;149;51.094;17.002;2023-05-23T13:34:15;9.60;;;8.80;;
323;SDS011;149;51.094;17.002;2023-05-23T13:36:44;8.00;;;7.30;;
323;SDS011;149;51.094;17.002;2023-05-23T13:39:12;7.83;;;7.17;;
323;SDS011;149;51.094;17.002;2023-05-23T13:41:54;11.03;;;8.70;;
323;SDS011;149;51.094;17.002;2023-05-23T13:44:27;8.43;;;7.63;;
323;SDS011;149;51.094;17.002;2023-05-23T13:47:25;9.77;;;8.77;;
323;SDS011;149;51.094;17.002;2023-05-23T13:49:52;8.80;;;7.87;;
323;SDS011;149;51.094;17.002;2023-05-23T13:52:19;11.30;;;8.70;;
323;SDS011;149;51.094;17.002;2023-05-23T13:54:49;9.37;;;8.57;;
323;SDS011;149;51.094;17.002;2023-05-23T13:57:24;12.43;;;8.90;;
323;SDS011;149;51.094;17.002;2023-05-23T13:59:51;9.20;;;8.30;;
323;SDS011;149;51.094;17.002;2023-05-23T14:02:19;16.23;;;8.90;;
323;SDS011;149;51.094;17.002;2023-05-23T14:04:58;15.30;;;9.33;;
323;SDS011;149;51.094;17.002;2023-05-23T14:07:26;12.20;;;8.63;;
323;SDS011;149;51.094;17.002;2023-05-23T14:10:01;10.90;;;8.63;;
323;SDS011;149;51.094;17.002;2023-05-23T14:12:42;11.83;;;8.90;;
323;SDS011;149;51.094;17.002;2023-05-23T14:15:17;13.27;;;9.37;;
323;SDS011;149;51.094;17.002;2023-05-23T14:17:47;9.87;;;8.90;;
323;SDS011;149;51.094;17.002;2023-05-23T14:20:16;10.30;;;8.20;;
323;SDS011;149;51.094;17.002;2023-05-23T14:22:47;8.33;;;7.50;;
323;SDS011;149;51.094;17.002;2023-05-23T14:25:37;9.30;;;8.30;;
323;SDS011;149;51.094;17.002;2023-05-23T14:28:21;7.63;;;6.80;;
323;SDS011;149;51.094;17.002;2023-05-23T14:30:51;8.63;;;7.30;;
323;SDS011;149;51.094;17.002;2023-05-23T14:33:24;10.13;;;7.80;;
323;SDS011;149;51.094;17.002;2023-05-23T14:35:51;8.67;;;7.97;;
323;SDS011;149;51.094;17.002;2023-05-23T14:38:20;8.93;;;7.50;;
323;SDS011;149;51.094;17.002;2023-05-23T14:40:50;9.27;;;8.17;;
323;SDS011;149;51.094;17.002;2023-05-23T14:43:17;9.07;;;7.70;;
323;SDS011;149;51.094;17.002;2023-05-23T14:45:47;12.13;;;9.40;;
323;SDS011;149;51.094;17.002;2023-05-23T14:48:18;8.60;;;7.60;;
323;SDS011;149;51.094;17.002;2023-05-23T14:50:46;11.07;;;8.87;;
323;SDS011;149;51.094;17.002;2023-05-23T14:53:13;15.70;;;9.40;;
323;SDS011;149;51.094;17.002;2023-05-23T14:55:40;12.63;;;7.70;;
323;SDS011;149;51.094;17.002;2023-05-23T14:58:12;9.03;;;7.30;;
323;SDS011;149;51.094;17.002;2023-05-23T15:00:45;9.10;;;7.97;;
323;SDS011;149;51.094;17.002;2023-05-23T15:03:14;9.47;;;8.67;;
323;SDS011;149;51.094;17.002;2023-05-23T15:05:46;11.47;;;9.50;;
323;SDS011;149;51.094;17.002;2023-05-23T15:08:15;8.00;;;7.20;;
323;SDS011;149;51.094;17.002;2023-05-23T15:10:47;9.60;;;8.80;;
323;SDS011;149;51.094;17.002;2023-05-23T15:13:16;10.17;;;9.20;;
323;SDS011;149;51.094;17.002;2023-05-23T15:15:44;9.30;;;8.30;;
323;SDS011;149;51.094;17.002;2023-05-23T15:18:13;7.90;;;7.30;;
323;SDS011;149;51.094;17.002;2023-05-23T15:21:00;8.03;;;7.30;;
323;SDS011;149;51.094;17.002;2023-05-23T15:23:28;8.10;;;7.30;;
323;SDS011;149;51.094;17.002;2023-05-23T15:25:58;9.60;;;6.70;;
323;SDS011;149;51.094;17.002;2023-05-23T15:28:28;7.80;;;7.00;;
323;SDS011;149;51.094;17.002;2023-05-23T15:30:55;6.87;;;6.27;;
323;SDS011;149;51.094;17.002;2023-05-23T15:33:24;7.13;;;6.50;;
323;SDS011;149;51.094;17.002;2023-05-23T15:35:52;8.07;;;7.33;;
323;SDS011;149;51.094;17.002;2023-05-23T15:38:20;8.80;;;7.30;;
323;SDS011;149;51.094;17.002;2023-05-23T15:40:48;8.13;;;7.33;;
323;SDS011;149;51.094;17.002;2023-05-23T15:43:19;8.53;;;7.73;;
323;SDS011;149;51.094;17.002;2023-05-23T15:45:48;6.97;;;6.37;;
323;SDS011;149;51.094;17.002;2023-05-23T15:48:16;7.53;;;6.87;;
323;SDS011;149;51.094;17.002;2023-05-23T15:50:45;8.70;;;7.77;;
323;SDS011;149;51.094;17.002;2023-05-23T15:53:15;7.30;;;6.60;;
323;SDS011;149;51.094;17.002;2023-05-23T15:55:41;9.57;;;7.13;;
323;SDS011;149;51.094;17.002;2023-05-23T15:58:10;7.83;;;6.90;;
323;SDS011;149;51.094;17.002;2023-05-23T16:00:39;8.60;;;7.80;;
323;SDS011;149;51.094;17.002;2023-05-23T16:03:10;7.47;;;6.77;;
323;SDS011;149;51.094;17.002;2023-05-23T16:05:39;7.00;;;6.30;;
323;SDS011;149;51.094;17.002;2023-05-23T16:08:06;8.87;;;7.97;;
323;SDS011;149;51.094;17.002;2023-05-23T16:10:38;7.73;;;6.87;;
323;SDS011;149;51.094;17.002;2023-05-23T16:13:08;9.33;;;7.40;;
323;SDS011;149;51.094;17.002;2023-05-23T16:15:35;8.37;;;7.20;;
323;SDS011;149;51.094;17.002;2023-05-23T16:18:05;10.90;;;7.60;;
323;SDS011;149;51.094;17.002;2023-05-23T16:20:32;10.60;;;7.00;;
323;SDS011;149;51.094;17.002;2023-05-23T16:23:02;9.53;;;6.80;;
323;SDS011;149;51.094;17.002;2023-05-23T16:25:29;7.30;;;6.70;;
323;SDS011;149;51.094;17.002;2023-05-23T16:27:57;7.27;;;6.60;;